Artesia ASC Data

Date Time Air Temperature Relative Humidity Dewpoint Windchill Heat Index Wind Speed Wind Dir. Rain Solar Radiation Soil Temperature
2m 2m 3m 3m 10cm
US/Mountain F % F F F MPH deg in MJ/m^2 F
max avg avg
2020-08-01 00:05:00 75.8 65.7 63.5 75.8 75.8 1.9 2.8 2.4 298.9 291.8 0.00 0.0000000 84.5
2020-08-01 00:10:00 76.1 60.5 61.4 76.1 76.1 1.7 1.9 1.6 293.8 307.0 0.00 0.0000000 84.4
2020-08-01 00:15:00 76.4 61.9 62.4 76.4 76.4 2.8 2.8 2.0 268.0 276.5 0.00 0.0000000 84.4
2020-08-01 00:20:00 75.4 70.1 64.9 75.4 75.4 3.5 3.7 3.0 244.1 251.7 0.00 0.0000000 84.3
2020-08-01 00:25:00 74.3 73.3 65.2 74.3 74.3 2.8 3.8 3.1 261.3 254.2 0.00 0.0000000 84.3
2020-08-01 00:30:00 73.7 75.1 65.3 73.7 73.7 3.8 3.8 2.8 240.1 258.4 0.00 0.0000000 84.3
2020-08-01 00:35:00 72.9 76.9 65.3 72.9 72.9 4.6 5.3 4.3 249.5 241.4 0.00 0.0000000 84.2
2020-08-01 00:40:00 73.4 74.3 64.7 73.4 73.4 3.5 5.1 4.0 265.5 253.9 0.00 0.0000000 84.1
2020-08-01 00:45:00 73.7 74.5 65.1 73.7 73.7 2.2 3.7 2.9 262.1 263.9 0.00 0.0000000 84.1
2020-08-01 00:50:00 73.6 73.9 64.7 73.6 73.6 2.8 3.1 2.6 313.5 282.3 0.00 0.0000000 84.1
2020-08-01 00:55:00 74.6 68.6 63.6 74.6 74.6 3.8 3.8 3.3 340.9 325.0 0.00 0.0000000 84.0
2020-08-01 01:00:00 75.6 64.4 62.8 75.6 75.6 4.4 4.6 3.7 350.3 340.5 0.00 0.0000000 84.0
2020-08-01 01:05:00 76.5 63.8 63.3 76.5 76.5 14.2 16.7 6.9 335.2 350.5 0.00 0.0000000 83.9
2020-08-01 01:10:00 77.8 50.2 57.8 77.8 77.8 21.7 24.0 15.5 19.8 343.9 0.00 0.0000000 83.9
2020-08-01 01:15:00 76.4 54.7 58.9 76.4 76.4 13.5 20.6 14.1 3.7 349.9 0.00 0.0000000 83.9
2020-08-01 01:20:00 75.7 63.0 62.2 75.7 75.7 11.9 17.1 12.7 351.2 9.4 0.01 0.0000000 83.8
2020-08-01 01:25:00 71.5 72.9 62.3 71.5 71.5 13.1 14.6 9.6 352.3 8.0 0.03 0.0000000 83.8
2020-08-01 01:30:00 70.1 75.5 62.0 70.1 70.1 9.7 13.5 8.6 340.1 6.1 0.00 0.0000000 83.8
2020-08-01 01:35:00 69.8 73.0 60.7 69.8 69.8 6.5 14.4 8.2 346.3 13.6 0.01 0.0000000 83.7
2020-08-01 01:40:00 70.1 69.7 59.8 70.1 70.1 8.7 11.0 6.3 176.9 34.3 0.00 0.0000000 83.6
2020-08-01 01:45:00 70.6 69.0 59.9 70.6 70.6 7.1 12.4 8.5 89.7 48.6 0.00 0.0000000 83.6
2020-08-01 01:50:00 70.6 68.4 59.7 70.6 70.6 7.1 9.7 7.0 61.1 45.2 0.00 0.0000000 83.5
2020-08-01 01:55:00 70.1 71.8 60.6 70.1 70.1 3.0 5.6 3.4 34.8 68.8 0.00 0.0000000 83.5
2020-08-01 02:00:00 69.9 70.6 59.9 69.9 69.9 4.0 5.3 3.6 61.1 66.8 0.00 0.0000000 83.4
2020-08-01 02:05:00 70.1 69.1 59.5 70.1 70.1 3.5 4.9 3.4 57.1 72.5 0.00 0.0000000 83.4
2020-08-01 02:10:00 70.3 68.9 59.6 70.3 70.3 4.6 4.7 3.4 43.5 54.8 0.00 0.0000000 83.3
2020-08-01 02:15:00 71.0 64.4 58.3 71.0 71.0 3.8 6.3 4.0 56.0 54.5 0.00 0.0000000 83.3
2020-08-01 02:20:00 71.0 65.4 58.8 71.0 71.0 3.8 4.7 3.2 66.7 76.4 0.00 0.0000000 83.2
2020-08-01 02:25:00 71.4 62.7 58.0 71.4 71.4 3.5 5.3 4.3 103.1 88.7 0.00 0.0000000 83.2
2020-08-01 02:30:00 70.9 65.5 58.7 70.9 70.9 3.3 4.0 3.4 113.0 101.2 0.00 0.0000000 83.1
2020-08-01 02:35:00 70.0 67.1 58.6 70.0 70.0 3.8 5.3 4.3 132.0 126.8 0.00 0.0000000 83.0
2020-08-01 02:40:00 70.2 64.3 57.5 70.2 70.2 3.1 4.2 3.2 149.5 130.6 0.00 0.0000000 83.0
2020-08-01 02:45:00 70.1 66.2 58.3 70.1 70.1 2.8 3.5 3.0 216.1 181.8 0.00 0.0000000 82.9
2020-08-01 02:50:00 69.6 67.6 58.4 69.6 69.6 2.8 3.1 2.4 193.3 210.4 0.00 0.0000000 82.9
2020-08-01 02:55:00 69.8 66.6 58.2 69.8 69.8 1.9 3.0 2.2 180.8 194.3 0.00 0.0000000 82.9
2020-08-01 03:00:00 69.9 68.2 58.9 69.9 69.9 2.6 2.6 1.2 241.8 223.0 0.00 0.0000000 82.8
2020-08-01 03:05:00 69.4 73.1 60.4 69.4 69.4 1.5 3.1 2.6 260.2 244.7 0.00 0.0000000 82.7
2020-08-01 03:10:00 68.9 71.9 59.5 68.9 68.9 0.8 1.5 1.0 40.5 356.8 0.00 0.0000000 82.7
2020-08-01 03:15:00 69.6 65.8 57.7 69.6 69.6 1.0 2.2 1.4 337.7 32.9 0.00 0.0000000 82.7
2020-08-01 03:20:00 69.7 76.5 62.0 69.7 69.7 2.4 2.4 1.5 272.9 307.9 0.00 0.0000000 82.6
2020-08-01 03:25:00 68.4 79.2 61.7 68.4 68.4 3.0 3.1 2.7 310.4 292.5 0.00 0.0000000 82.5
2020-08-01 03:30:00 68.9 72.8 59.8 68.9 68.9 2.1 3.1 2.3 324.2 311.9 0.00 0.0000000 82.5
2020-08-01 03:35:00 68.8 78.8 62.0 68.8 68.8 4.2 4.2 2.5 297.3 303.5 0.00 0.0000000 82.5
2020-08-01 03:40:00 68.1 81.8 62.3 68.1 68.1 2.8 4.2 3.4 289.2 279.2 0.00 0.0000000 82.4
2020-08-01 03:45:00 67.6 82.5 62.1 67.6 67.6 1.7 3.1 1.7 335.1 313.4 0.00 0.0000000 82.3
2020-08-01 03:50:00 68.5 78.9 61.7 68.5 68.5 4.0 4.0 3.0 344.9 339.4 0.00 0.0000000 82.3
2020-08-01 03:55:00 68.3 80.3 62.0 68.3 68.3 3.5 3.8 3.4 319.1 337.5 0.00 0.0000000 82.3
2020-08-01 04:00:00 67.9 82.0 62.2 67.9 67.9 3.0 3.3 2.7 319.4 318.7 0.00 0.0000000 82.2
2020-08-01 04:05:00 67.8 83.1 62.5 67.8 67.8 2.6 3.1 2.6 321.6 327.8 0.00 0.0000000 82.1
2020-08-01 04:10:00 67.9 83.1 62.6 67.9 67.9 1.5 2.8 1.8 294.8 313.4 0.00 0.0000000 82.1
2020-08-01 04:15:00 67.7 84.0 62.7 67.7 67.7 1.3 1.5 1.0 326.7 305.0 0.00 0.0000000 82.1
2020-08-01 04:20:00 67.8 81.4 61.9 67.8 67.8 2.2 2.4 1.9 290.6 317.0 0.00 0.0000000 82.1
2020-08-01 04:25:00 67.3 85.0 62.6 67.3 67.3 4.9 5.3 3.7 295.0 274.8 0.00 0.0000000 82.0
2020-08-01 04:30:00 67.3 82.8 61.9 67.3 67.3 4.7 5.6 4.8 305.8 291.6 0.00 0.0000000 81.9
2020-08-01 04:35:00 67.4 81.2 61.4 67.4 67.4 4.6 5.8 4.9 287.7 291.7 0.00 0.0000000 81.9
2020-08-01 04:40:00 67.4 79.2 60.7 67.4 67.4 4.6 5.6 4.8 272.7 283.4 0.00 0.0000000 81.9
2020-08-01 04:45:00 67.2 79.5 60.6 67.2 67.2 5.1 5.8 4.8 274.9 279.0 0.00 0.0000000 81.8
2020-08-01 04:50:00 66.9 80.1 60.6 66.9 66.9 5.1 5.8 4.8 288.1 287.6 0.00 0.0000000 81.8
2020-08-01 04:55:00 67.2 79.5 60.6 67.2 67.2 5.1 7.1 5.4 295.9 296.9 0.00 0.0000000 81.7
2020-08-01 05:00:00 67.2 78.3 60.2 67.2 67.2 4.4 6.0 4.8 315.4 302.3 0.00 0.0000000 81.7
2020-08-01 05:05:00 67.0 78.7 60.2 67.0 67.0 5.1 5.8 5.1 317.9 316.6 0.00 0.0000000 81.6
2020-08-01 05:10:00 66.7 79.4 60.1 66.7 66.7 5.6 6.5 5.7 305.1 320.1 0.00 0.0000000 81.6
2020-08-01 05:15:00 66.7 79.7 60.2 66.7 66.7 5.3 6.3 5.7 310.7 314.4 0.00 0.0000000 81.6
2020-08-01 05:20:00 66.1 81.9 60.4 66.1 66.1 4.4 5.5 4.8 313.8 319.6 0.00 0.0000000 81.5
2020-08-01 05:25:00 66.1 81.4 60.2 66.1 66.1 4.4 4.7 4.2 312.4 313.2 0.00 0.0000000 81.5
2020-08-01 05:30:00 66.3 80.6 60.1 66.3 66.3 3.5 5.1 4.4 289.9 299.3 0.00 0.0000000 81.4
2020-08-01 05:35:00 65.6 82.9 60.3 65.6 65.6 3.0 3.7 2.9 259.5 255.7 0.00 0.0000000 81.4
2020-08-01 05:40:00 65.3 84.6 60.5 65.3 65.3 2.1 2.8 2.1 263.4 260.2 0.00 0.0000000 81.3
2020-08-01 05:45:00 64.9 85.8 60.5 64.9 64.9 3.5 3.7 3.0 296.0 282.6 0.00 0.0000000 81.3
2020-08-01 05:50:00 65.1 84.3 60.2 65.1 65.1 3.0 3.5 3.1 308.8 308.9 0.00 0.0000000 81.2
2020-08-01 05:55:00 65.3 82.2 59.7 65.3 65.3 2.8 3.7 3.2 284.5 297.6 0.00 0.0000000 81.2
2020-08-01 06:00:00 65.1 83.2 59.9 65.1 65.1 2.8 3.5 2.9 334.0 299.2 0.00 0.0010000 81.2
2020-08-01 06:05:00 65.5 78.8 58.8 65.5 65.5 2.4 3.1 2.7 302.1 319.9 0.00 0.0020000 81.1
2020-08-01 06:10:00 65.8 79.8 59.4 65.8 65.8 1.9 2.8 2.3 338.4 320.5 0.00 0.0030000 81.1
2020-08-01 06:15:00 65.9 78.3 58.9 65.9 65.9 2.2 2.8 2.1 46.1 11.5 0.00 0.0050000 81.0
2020-08-01 06:20:00 65.8 79.7 59.3 65.8 65.8 3.1 3.5 2.6 15.6 33.0 0.00 0.0090000 81.0
2020-08-01 06:25:00 65.8 78.0 58.8 65.8 65.8 1.7 3.7 2.3 54.7 13.4 0.00 0.0120000 80.9
2020-08-01 06:30:00 65.9 80.0 59.5 65.9 65.9 2.6 2.6 1.8 28.8 57.4 0.00 0.0210000 80.9
2020-08-01 06:35:00 66.3 79.7 59.8 66.3 66.3 3.5 4.0 3.1 61.9 46.2 0.00 0.0310000 80.9
2020-08-01 06:40:00 66.6 78.4 59.7 66.6 66.6 2.8 3.8 2.9 7.4 20.6 0.00 0.0420000 80.8
2020-08-01 06:45:00 67.0 78.7 60.2 67.0 67.0 3.1 3.3 2.1 64.1 33.8 0.00 0.0560000 80.8
2020-08-01 06:50:00 66.8 80.6 60.7 66.8 66.8 3.1 4.0 3.3 37.2 47.7 0.00 0.0720000 80.7
2020-08-01 06:55:00 67.2 79.4 60.6 67.2 67.2 3.7 4.2 2.9 31.5 15.6 0.00 0.0890000 80.7
2020-08-01 07:00:00 67.4 78.7 60.5 67.4 67.4 3.1 4.2 3.0 5.4 3.7 0.00 0.1040000 80.7
2020-08-01 07:05:00 67.9 79.0 61.1 67.9 67.9 2.8 3.5 2.6 18.4 357.9 0.00 0.1170000 80.6
2020-08-01 07:10:00 67.9 77.8 60.7 67.9 67.9 2.8 3.8 2.8 10.2 3.9 0.00 0.1310000 80.6
2020-08-01 07:15:00 68.3 75.3 60.2 68.3 68.3 4.2 4.9 3.1 24.2 8.2 0.00 0.1460000 80.6
2020-08-01 07:20:00 68.8 74.1 60.2 68.8 68.8 3.3 3.3 2.8 0.2 6.3 0.00 0.1600000 80.5
2020-08-01 07:25:00 69.1 73.0 60.1 69.1 69.1 3.3 4.4 3.1 10.3 2.1 0.00 0.1760000 80.5
2020-08-01 07:30:00 68.9 75.7 60.9 68.9 68.9 3.5 5.1 3.5 345.5 340.8 0.00 0.1900000 80.5
2020-08-01 07:35:00 69.5 72.8 60.4 69.5 69.5 3.0 4.2 3.1 6.2 352.3 0.00 0.2060000 80.4
2020-08-01 07:40:00 69.9 72.0 60.4 69.9 69.9 3.8 4.6 3.3 340.9 356.9 0.00 0.2210000 80.4
2020-08-01 07:45:00 70.2 68.0 59.1 70.2 70.2 2.8 5.6 3.7 6.2 2.7 0.00 0.2370000 80.4
2020-08-01 07:50:00 71.0 66.3 59.1 71.0 71.0 3.5 5.1 3.8 0.4 11.7 0.00 0.2530000 80.4
2020-08-01 07:55:00 71.6 64.4 58.9 71.6 71.6 2.8 4.9 3.8 343.2 20.3 0.00 0.2690000 80.3
2020-08-01 08:00:00 72.0 63.5 59.0 72.0 72.0 4.2 5.1 3.2 20.1 10.0 0.00 0.2840000 80.3
2020-08-01 08:05:00 72.4 68.3 61.4 72.4 72.4 3.1 4.6 3.5 346.7 356.2 0.00 0.3010000 80.3
2020-08-01 08:10:00 72.3 65.8 60.3 72.3 72.3 3.3 4.4 3.5 327.1 334.9 0.00 0.3170000 80.3
2020-08-01 08:15:00 72.3 65.3 60.0 72.3 72.3 3.1 4.4 3.6 314.7 332.5 0.00 0.3330000 80.3
2020-08-01 08:20:00 72.6 64.3 59.9 72.6 72.6 4.0 4.9 3.8 330.9 328.5 0.00 0.3500000 80.2
2020-08-01 08:25:00 73.4 63.8 60.4 73.4 73.4 4.4 6.3 4.7 348.7 331.9 0.00 0.3660000 80.2
2020-08-01 08:30:00 74.2 59.4 59.2 74.2 74.2 3.7 5.3 4.0 346.4 335.5 0.00 0.3830000 80.2
2020-08-01 08:35:00 74.9 60.4 60.3 74.9 74.9 3.1 4.7 3.4 335.2 326.2 0.00 0.3980000 80.2
2020-08-01 08:40:00 75.3 59.4 60.1 75.3 75.3 3.3 4.7 3.6 333.6 327.6 0.00 0.4140000 80.2
2020-08-01 08:45:00 76.2 55.6 59.2 76.2 76.2 1.3 3.7 2.5 312.1 347.7 0.00 0.4300000 80.2
2020-08-01 08:50:00 77.5 56.3 60.7 77.5 77.5 2.8 4.0 2.5 53.0 12.7 0.00 0.4460000 80.2
2020-08-01 08:55:00 76.8 62.4 63.0 76.8 76.8 3.0 6.0 3.7 2.4 57.4 0.00 0.4620000 80.1
2020-08-01 09:00:00 76.8 53.6 58.7 76.8 76.8 7.1 7.1 3.5 55.4 46.8 0.00 0.4780000 80.1
2020-08-01 09:05:00 77.3 52.6 58.6 77.3 77.3 2.8 6.7 4.2 321.4 14.8 0.00 0.4920000 80.1
2020-08-01 09:10:00 77.7 49.3 57.2 77.7 77.7 4.0 6.0 3.6 4.2 30.5 0.00 0.5080000 80.1
2020-08-01 09:15:00 78.4 50.6 58.6 78.4 78.4 1.9 6.2 3.6 345.7 15.0 0.00 0.5210000 80.1
2020-08-01 09:20:00 79.0 47.7 57.5 79.0 79.0 4.4 6.5 4.0 11.1 25.5 0.00 0.5380000 80.1
2020-08-01 09:25:00 79.1 47.4 57.5 79.1 79.1 5.3 7.2 4.6 57.7 43.0 0.00 0.5520000 80.1
2020-08-01 09:30:00 79.1 47.8 57.6 79.1 79.1 5.3 8.1 5.4 14.4 20.3 0.00 0.5650000 80.1
2020-08-01 09:35:00 79.0 49.0 58.3 79.0 79.0 2.8 8.0 5.3 0.2 7.4 0.00 0.5770000 80.2
2020-08-01 09:40:00 79.8 44.6 56.3 79.8 79.8 4.4 7.2 5.1 62.4 19.1 0.00 0.5930000 80.2
2020-08-01 09:45:00 80.4 43.3 56.0 80.4 80.5 6.2 6.9 5.1 40.3 5.1 0.00 0.6070000 80.2
2020-08-01 09:50:00 80.7 42.6 55.8 80.7 80.6 6.0 7.6 4.7 13.2 14.9 0.00 0.6200000 80.2
2020-08-01 09:55:00 80.8 45.0 57.5 80.8 81.0 8.1 8.1 4.9 344.0 4.7 0.00 0.6340000 80.2
2020-08-01 10:00:00 81.1 39.0 53.8 81.1 81.1 5.5 7.4 5.1 351.3 6.5 0.00 0.6470000 80.2
2020-08-01 10:05:00 81.7 39.5 54.7 81.7 81.7 5.5 6.7 4.5 28.9 14.3 0.00 0.6600000 80.2
2020-08-01 10:10:00 82.0 38.3 54.1 82.0 82.0 3.8 8.0 5.4 35.0 6.4 0.00 0.6720000 80.3
2020-08-01 10:15:00 83.0 38.5 55.1 83.0 83.0 4.0 7.4 4.1 65.6 7.5 0.00 0.6850000 80.3
2020-08-01 10:20:00 83.2 38.8 55.6 83.2 83.2 3.3 6.5 4.5 5.8 29.0 0.00 0.6970000 80.3
2020-08-01 10:25:00 82.4 35.9 52.7 82.4 82.4 5.8 7.1 5.5 0.4 20.4 0.00 0.7080000 80.3
2020-08-01 10:30:00 83.3 35.9 53.5 83.3 83.3 4.9 5.6 3.6 27.4 2.8 0.00 0.7190000 80.3
2020-08-01 10:35:00 83.3 38.8 55.6 83.3 83.3 1.7 7.4 3.5 63.9 359.0 0.00 0.7310000 80.4
2020-08-01 10:40:00 83.7 36.3 54.2 83.7 83.7 5.1 7.1 4.3 36.3 23.1 0.00 0.7400000 80.4
2020-08-01 10:45:00 83.9 37.0 54.9 83.9 83.9 3.3 5.1 3.8 93.2 29.6 0.00 0.7500000 80.4
2020-08-01 10:50:00 83.8 39.6 56.6 83.8 83.8 2.2 5.6 4.0 0.3 38.6 0.00 0.7600000 80.5
2020-08-01 10:55:00 84.3 36.0 54.4 84.3 84.3 3.1 6.7 3.5 86.8 18.0 0.00 0.7710000 80.5
2020-08-01 11:00:00 85.5 35.2 54.9 85.5 85.5 6.7 8.1 3.9 330.9 31.2 0.00 0.7800000 80.6
2020-08-01 11:05:00 84.4 34.6 53.4 84.4 84.4 5.3 8.3 4.8 18.8 28.1 0.00 0.7890000 80.6
2020-08-01 11:10:00 84.8 35.9 54.9 84.8 84.8 2.1 5.3 3.5 140.6 87.8 0.00 0.7980000 80.7
2020-08-01 11:15:00 84.8 36.1 55.0 84.8 84.8 4.6 7.2 4.6 103.4 96.2 0.00 0.8040000 80.7
2020-08-01 11:20:00 86.3 35.4 55.8 86.3 86.3 2.4 6.2 4.1 307.2 53.5 0.00 0.8130000 80.8
2020-08-01 11:25:00 85.6 34.5 54.5 85.6 85.6 7.1 8.1 5.3 101.0 55.3 0.00 0.8210000 80.8
2020-08-01 11:30:00 85.1 35.9 55.1 85.1 85.1 6.0 6.2 4.1 64.7 81.5 0.00 0.8280000 80.9
2020-08-01 11:35:00 86.4 33.2 54.0 86.4 86.4 2.8 5.3 2.9 79.1 101.3 0.00 0.8360000 81.0
2020-08-01 11:40:00 86.6 36.1 56.5 86.6 86.6 4.4 5.8 3.0 348.6 28.5 0.00 0.8420000 81.1
2020-08-01 11:45:00 86.9 34.0 55.1 86.9 86.9 2.8 6.7 4.1 64.4 65.1 0.00 0.8480000 81.2
2020-08-01 11:50:00 86.9 35.1 56.1 86.9 86.9 3.3 7.2 3.9 23.2 354.8 0.00 0.8520000 81.2
2020-08-01 11:55:00 87.6 33.2 55.1 87.6 87.6 6.0 7.1 3.5 113.1 54.2 0.00 0.8580000 81.3
2020-08-01 12:00:00 86.9 36.0 56.8 86.9 86.9 1.7 6.9 4.3 132.1 127.9 0.00 0.8640000 81.4
2020-08-01 12:05:00 87.9 33.6 55.7 87.9 87.9 2.1 6.2 3.3 179.5 133.8 0.00 0.8670000 81.5
2020-08-01 12:10:00 87.4 32.1 54.0 87.4 87.4 2.8 3.7 2.6 58.5 87.1 0.00 0.8720000 81.6
2020-08-01 12:15:00 88.6 32.7 55.6 88.6 88.6 3.7 4.9 2.2 119.2 99.3 0.00 0.8750000 81.7
2020-08-01 12:20:00 88.5 38.7 60.2 88.5 88.5 3.8 4.9 3.2 191.9 127.2 0.00 0.8790000 81.8
2020-08-01 12:25:00 87.8 33.0 55.2 87.8 87.8 2.6 5.1 3.2 245.2 178.6 0.00 0.8830000 81.9
2020-08-01 12:30:00 88.1 32.8 55.2 88.1 88.1 7.8 8.0 4.2 142.9 195.2 0.00 0.8860000 82.1
2020-08-01 12:35:00 88.3 32.3 55.0 88.3 88.3 2.2 6.3 4.1 198.7 161.0 0.00 0.8880000 82.2
2020-08-01 12:40:00 88.4 31.6 54.5 88.4 88.4 3.7 8.0 5.1 63.0 128.4 0.00 0.8890000 82.3
2020-08-01 12:45:00 89.0 33.2 56.3 89.0 89.0 3.7 4.4 2.8 117.8 86.9 0.00 0.8920000 82.4
2020-08-01 12:50:00 90.3 30.4 55.1 90.3 90.3 3.1 4.9 2.8 75.5 78.5 0.00 0.8940000 82.5
2020-08-01 12:55:00 90.4 29.9 54.7 90.4 90.4 3.0 3.5 1.9 152.5 133.8 0.00 0.8950000 82.7
2020-08-01 13:00:00 89.3 29.5 53.3 89.3 89.3 3.0 4.6 3.3 203.0 182.8 0.00 0.8960000 82.8
2020-08-01 13:05:00 91.1 30.6 55.9 91.1 91.1 0.0 3.5 2.1 139.1 208.0 0.00 0.8950000 82.9
2020-08-01 13:10:00 90.8 31.0 56.0 90.8 90.8 2.8 6.7 3.5 111.6 138.8 0.00 0.8940000 83.0
2020-08-01 13:15:00 91.5 29.2 55.0 91.5 91.5 3.1 5.3 2.5 84.7 138.6 0.00 0.8930000 83.2
2020-08-01 13:20:00 90.9 31.9 56.9 90.9 90.9 2.6 4.2 2.7 283.6 237.9 0.00 0.8950000 83.3
2020-08-01 13:25:00 91.3 30.8 56.3 91.3 91.3 3.7 6.9 3.9 88.0 110.6 0.00 0.8930000 83.4
2020-08-01 13:30:00 91.3 29.0 54.6 91.3 91.3 3.7 6.0 4.0 90.2 108.0 0.00 0.8890000 83.5
2020-08-01 13:35:00 91.2 28.5 54.1 91.2 91.2 3.5 4.6 2.5 31.6 97.8 0.00 0.8880000 83.6
2020-08-01 13:40:00 91.4 29.0 54.7 91.4 91.4 2.2 6.2 3.4 77.3 124.7 0.00 0.8850000 83.7
2020-08-01 13:45:00 91.0 29.1 54.5 91.0 91.0 4.4 5.1 3.8 167.6 173.2 0.00 0.8830000 83.8
2020-08-01 13:50:00 91.3 28.3 53.9 91.3 91.3 4.2 4.7 3.7 111.6 118.4 0.00 0.8810000 83.9
2020-08-01 13:55:00 91.9 26.7 52.9 91.9 91.9 4.6 6.5 4.8 32.0 68.8 0.00 0.8770000 84.1
2020-08-01 14:00:00 92.0 29.9 56.0 92.0 92.0 3.7 4.4 3.6 149.6 146.9 0.00 0.8730000 84.2
2020-08-01 14:05:00 92.3 35.0 60.7 92.3 92.3 3.7 11.2 5.1 170.3 125.8 0.00 0.8700000 84.3
2020-08-01 14:10:00 92.2 33.0 58.9 92.2 92.2 3.3 7.6 4.9 152.2 143.6 0.00 0.8660000 84.4
2020-08-01 14:15:00 92.3 26.4 52.8 92.3 92.3 3.7 4.6 2.8 59.4 84.3 0.00 0.8640000 84.5
2020-08-01 14:20:00 92.1 29.4 55.7 92.1 92.1 3.8 4.7 3.4 143.5 125.3 0.00 0.8590000 84.6
2020-08-01 14:25:00 93.1 26.3 53.4 93.1 93.1 6.7 8.0 3.6 345.8 0.9 0.00 0.8520000 84.7
2020-08-01 14:30:00 93.0 26.3 53.3 93.0 93.0 5.5 6.3 3.8 117.4 56.6 0.00 0.8460000 84.8
2020-08-01 14:35:00 93.1 35.1 61.4 93.1 93.1 2.4 5.1 3.1 167.8 143.7 0.00 0.8400000 85.0
2020-08-01 14:40:00 94.8 29.8 58.4 94.8 94.8 1.5 2.2 1.6 146.8 285.3 0.00 0.8400000 85.1
2020-08-01 14:45:00 94.4 23.4 51.3 94.4 94.4 1.7 4.6 2.6 209.5 147.1 0.00 0.8320000 85.2
2020-08-01 14:50:00 93.4 25.7 53.1 93.4 93.4 1.7 5.1 3.2 77.1 181.6 0.00 0.8200000 85.3
2020-08-01 14:55:00 94.3 23.8 51.7 94.3 94.3 3.7 8.1 3.7 59.6 45.2 0.00 0.8150000 85.4
2020-08-01 15:00:00 93.3 26.7 54.0 93.3 93.3 2.8 5.8 3.4 286.5 220.6 0.00 0.8080000 85.5
2020-08-01 15:05:00 94.3 23.9 51.9 94.3 94.3 5.3 5.6 3.8 122.8 129.5 0.00 0.8000000 85.6
2020-08-01 15:10:00 93.7 24.4 51.9 93.7 93.7 3.7 5.8 3.9 70.2 61.5 0.00 0.7910000 85.7
2020-08-01 15:15:00 94.3 23.7 51.6 94.3 94.3 2.8 4.2 2.7 121.5 129.5 0.00 0.7820000 85.8
2020-08-01 15:20:00 95.3 24.0 52.8 95.3 95.3 2.1 5.5 4.2 325.8 21.1 0.00 0.7720000 85.9
2020-08-01 15:25:00 94.6 21.8 49.6 94.6 94.6 2.4 6.3 3.5 177.9 104.9 0.00 0.7620000 86.0
2020-08-01 15:30:00 94.6 20.5 48.0 94.6 94.6 4.4 8.0 4.6 144.7 126.6 0.00 0.7530000 86.0
2020-08-01 15:35:00 94.2 20.9 48.2 94.2 94.2 2.8 5.1 3.2 161.6 147.5 0.00 0.7440000 86.1
2020-08-01 15:40:00 93.9 22.1 49.4 93.9 93.9 6.5 7.1 3.3 136.6 179.6 0.00 0.7320000 86.2
2020-08-01 15:45:00 94.2 20.8 48.1 94.2 94.2 3.7 6.9 5.1 176.1 130.3 0.00 0.7160000 86.3
2020-08-01 15:50:00 94.6 19.4 46.5 94.6 94.6 3.7 6.3 4.2 121.9 123.9 0.00 0.7040000 86.3
2020-08-01 15:55:00 95.0 20.4 48.2 95.0 95.0 3.7 4.6 3.1 139.1 132.1 0.00 0.6910000 86.4
2020-08-01 16:00:00 94.9 22.5 50.8 94.9 94.9 3.8 4.6 3.6 216.5 229.9 0.00 0.6790000 86.5
2020-08-01 16:05:00 94.3 24.6 52.7 94.3 94.3 3.1 3.8 3.1 205.7 215.0 0.00 0.6670000 86.5
2020-08-01 16:10:00 94.8 20.6 48.3 94.8 94.8 1.5 3.8 2.1 84.1 171.5 0.00 0.6540000 86.6
2020-08-01 16:15:00 95.3 21.9 50.3 95.3 95.3 1.7 5.3 2.9 184.0 55.9 0.00 0.6410000 86.7
2020-08-01 16:20:00 95.6 21.1 49.6 95.6 95.6 2.8 4.9 2.9 326.6 196.3 0.00 0.6290000 86.7
2020-08-01 16:25:00 96.2 19.8 48.4 96.2 96.2 3.3 7.4 4.7 295.8 343.7 0.00 0.6150000 86.8
2020-08-01 16:30:00 96.2 20.1 48.7 96.2 96.2 1.0 4.0 2.5 91.7 314.5 0.00 0.6000000 86.8
2020-08-01 16:35:00 97.0 20.4 49.8 97.0 97.0 3.3 5.6 3.1 86.3 70.8 0.00 0.5860000 86.9
2020-08-01 16:40:00 95.9 21.0 49.7 95.9 95.9 6.3 7.4 4.5 332.1 29.9 0.00 0.5720000 86.9
2020-08-01 16:45:00 95.6 19.7 47.7 95.6 95.6 0.0 5.8 3.4 246.5 302.7 0.00 0.5430000 87.0
2020-08-01 16:50:00 96.3 20.4 49.2 96.3 96.3 6.0 6.0 2.9 71.0 108.3 0.00 0.5470000 87.0
2020-08-01 16:55:00 95.4 21.6 50.0 95.4 95.4 3.1 6.3 4.0 129.7 103.5 0.00 0.5390000 87.1
2020-08-01 17:00:00 96.0 19.4 47.6 96.0 96.0 1.5 3.3 2.1 125.1 65.6 0.00 0.5260000 87.1
2020-08-01 17:05:00 96.5 19.5 48.2 96.5 96.5 6.3 6.3 3.0 72.0 118.5 0.00 0.5120000 87.1
2020-08-01 17:10:00 95.6 26.4 55.7 95.6 95.6 3.8 6.3 4.1 199.0 148.5 0.00 0.4990000 87.1
2020-08-01 17:15:00 95.4 19.4 47.2 95.4 95.4 5.3 6.2 4.3 108.2 140.7 0.00 0.4820000 87.2
2020-08-01 17:20:00 96.0 20.5 49.1 96.0 96.0 2.4 4.7 3.3 120.5 135.5 0.00 0.4710000 87.2
2020-08-01 17:25:00 96.4 19.0 47.4 96.4 96.4 3.7 4.2 2.9 77.3 128.7 0.00 0.4650000 87.2
2020-08-01 17:30:00 96.3 19.0 47.3 96.3 96.3 1.9 4.0 2.8 68.4 98.6 0.00 0.4620000 87.3
2020-08-01 17:35:00 96.0 18.9 46.9 96.0 96.0 1.0 2.6 1.9 231.1 146.9 0.00 0.1770000 87.3
2020-08-01 17:40:00 95.8 19.3 47.4 95.8 95.8 3.5 5.3 2.8 348.6 303.6 0.00 0.2880000 87.3
2020-08-01 17:45:00 95.6 19.7 47.7 95.6 95.6 3.1 7.4 4.0 0.9 354.8 0.00 0.1380000 87.3
2020-08-01 17:50:00 95.4 19.4 47.2 95.4 95.4 5.5 5.5 2.0 116.2 316.9 0.00 0.1480000 87.4
2020-08-01 17:55:00 94.3 21.2 48.7 94.3 94.3 4.9 4.9 3.5 188.6 173.8 0.00 0.1440000 87.3
2020-08-01 18:00:00 93.8 21.5 48.6 93.8 93.8 4.0 6.0 3.4 181.0 179.2 0.00 0.2000000 87.3
2020-08-01 18:05:00 93.4 22.9 49.9 93.4 93.4 5.8 8.0 5.7 141.7 175.6 0.00 0.3340000 87.4
2020-08-01 18:10:00 94.3 19.8 46.7 94.3 94.3 3.8 7.2 5.1 120.3 129.1 0.00 0.2080000 87.4
2020-08-01 18:15:00 95.1 22.4 50.8 95.1 95.1 1.0 3.7 2.1 3.7 76.8 0.00 0.1740000 87.4
2020-08-01 18:20:00 95.0 24.0 52.6 95.0 95.0 1.3 2.6 1.5 249.9 267.6 0.00 0.1490000 87.4
2020-08-01 18:25:00 95.3 21.0 49.2 95.3 95.3 1.3 1.3 0.3 135.4 242.0 0.00 0.1470000 87.4
2020-08-01 18:30:00 95.0 19.7 47.3 95.0 95.0 1.7 2.4 1.4 317.6 162.4 0.00 0.1410000 87.4
2020-08-01 18:35:00 94.8 21.6 49.6 94.8 94.8 1.0 2.1 1.0 332.8 285.5 0.00 0.1260000 87.3
2020-08-01 18:40:00 94.9 21.5 49.4 94.9 94.9 4.9 4.9 3.6 3.0 340.7 0.00 0.1150000 87.4
2020-08-01 18:45:00 94.5 20.9 48.3 94.5 94.5 4.2 5.1 3.8 336.5 343.9 0.00 0.1060000 87.3
2020-08-01 18:50:00 93.9 19.7 46.4 93.9 93.9 3.1 6.0 4.6 10.7 344.0 0.00 0.0970000 87.3
2020-08-01 18:55:00 94.0 21.6 48.8 94.0 94.0 3.5 3.5 2.1 346.2 329.2 0.00 0.0790000 87.3
2020-08-01 19:00:00 94.1 20.0 46.9 94.1 94.1 2.8 2.8 1.6 306.7 331.0 0.00 0.0700000 87.3
2020-08-01 19:05:00 92.8 24.2 50.9 92.8 92.8 4.4 5.3 4.1 253.0 260.9 0.00 0.0560000 87.3
2020-08-01 19:10:00 91.2 28.8 54.4 91.2 91.2 3.7 5.1 4.1 252.1 254.0 0.00 0.0410000 87.2
2020-08-01 19:15:00 91.1 25.8 51.3 91.1 91.1 3.0 3.7 3.1 230.3 239.7 0.00 0.0330000 87.2
2020-08-01 19:20:00 90.6 32.4 57.1 90.6 90.6 1.3 3.0 2.1 346.3 235.3 0.00 0.0280000 87.2
2020-08-01 19:25:00 90.3 28.4 53.2 90.3 90.3 1.2 2.1 1.4 113.7 78.8 0.00 0.0230000 87.2
2020-08-01 19:30:00 91.1 25.0 50.3 91.1 91.1 1.9 1.9 1.5 186.8 156.0 0.00 0.0180000 87.1
2020-08-01 19:35:00 90.6 26.0 51.0 90.6 90.6 0.0 1.9 1.1 40.2 151.7 0.00 0.0120000 87.0
2020-08-01 19:40:00 91.0 26.0 51.3 91.0 91.0 1.0 2.8 1.5 60.6 75.6 0.00 0.0090000 87.0
2020-08-01 19:45:00 90.9 25.3 50.6 90.9 90.9 0.8 1.3 0.9 57.2 24.3 0.00 0.0060000 87.0
2020-08-01 19:50:00 90.2 29.3 54.0 90.2 90.2 0.0 1.0 0.1 130.1 59.9 0.00 0.0030000 86.9
2020-08-01 19:55:00 89.1 28.6 52.4 89.1 89.1 0.0 1.7 0.8 262.7 254.8 0.00 0.0020000 86.9
2020-08-01 20:00:00 88.0 34.0 56.1 88.0 88.0 3.8 4.4 2.8 44.8 77.5 0.00 0.0010000 86.8
2020-08-01 20:05:00 87.6 33.0 54.9 87.6 87.6 2.6 4.6 3.3 63.4 77.1 0.00 0.0010000 86.8
2020-08-01 20:10:00 88.5 30.4 53.5 88.5 88.5 2.4 4.6 2.9 60.1 59.9 0.00 0.0000000 86.8
2020-08-01 20:15:00 88.7 28.7 52.1 88.7 88.7 2.1 3.7 2.6 0.3 45.9 0.00 0.0000000 86.7
2020-08-01 20:20:00 89.8 29.5 53.7 89.8 89.8 2.8 4.0 3.0 111.0 49.6 0.00 0.0000000 86.6
2020-08-01 20:25:00 87.7 27.6 50.2 87.7 87.7 3.1 3.1 2.6 77.2 81.0 0.00 0.0000000 86.6
2020-08-01 20:30:00 88.3 27.2 50.3 88.3 88.3 4.2 4.2 2.7 73.6 63.7 0.00 0.0000000 86.5
2020-08-01 20:35:00 88.7 26.6 50.1 88.7 88.7 1.5 3.8 2.5 56.0 68.6 0.00 0.0000000 86.5
2020-08-01 20:40:00 88.1 30.7 53.4 88.1 88.1 2.1 3.0 2.1 81.4 91.5 0.00 0.0000000 86.4
2020-08-01 20:45:00 87.1 31.5 53.3 87.1 87.1 1.5 2.6 1.9 106.1 91.9 0.00 0.0000000 86.4
2020-08-01 20:50:00 86.8 29.8 51.5 86.8 86.8 1.7 2.4 1.9 99.7 91.1 0.00 0.0000000 86.3
2020-08-01 20:55:00 86.4 32.8 53.7 86.4 86.4 1.2 1.9 1.6 139.5 112.0 0.00 0.0000000 86.3
2020-08-01 21:00:00 85.7 32.4 52.8 85.7 85.7 1.3 1.5 1.1 28.7 78.1 0.00 0.0000000 86.1
2020-08-01 21:05:00 85.8 31.2 51.9 85.8 85.8 1.7 1.7 1.3 67.3 62.5 0.00 0.0000000 86.1
2020-08-01 21:10:00 86.6 29.6 51.1 86.6 86.6 1.9 2.1 1.4 86.5 74.5 0.00 0.0000000 86.0
2020-08-01 21:15:00 86.4 29.4 50.8 86.4 86.4 1.9 2.2 1.6 64.6 66.8 0.00 0.0000000 86.0
2020-08-01 21:20:00 86.3 28.9 50.2 86.3 86.3 0.0 1.7 0.9 66.7 69.9 0.00 0.0000000 85.9
2020-08-01 21:25:00 85.5 35.3 55.0 85.5 85.5 0.0 0.0 0.0 288.4 0.0 0.00 0.0000000 85.9
2020-08-01 21:30:00 85.0 34.4 53.9 85.0 85.0 0.0 1.5 0.5 106.3 100.1 0.00 0.0000000 85.8
2020-08-01 21:35:00 85.0 32.9 52.6 85.0 85.0 1.9 2.1 1.1 98.5 109.9 0.00 0.0000000 85.8
2020-08-01 21:40:00 86.1 30.1 51.1 86.1 86.1 2.2 2.8 2.2 115.4 100.0 0.00 0.0000000 85.7
2020-08-01 21:45:00 85.6 32.1 52.4 85.6 85.6 2.6 3.0 2.4 92.3 106.2 0.00 0.0000000 85.7
2020-08-01 21:50:00 85.8 28.8 49.7 85.8 85.8 3.0 3.3 2.8 102.4 99.6 0.00 0.0000000 85.6
2020-08-01 21:55:00 85.8 29.9 50.7 85.8 85.8 3.8 4.6 3.1 94.6 102.3 0.00 0.0000000 85.5
2020-08-01 22:00:00 85.2 31.6 51.7 85.2 85.2 4.0 4.4 3.8 91.8 87.5 0.00 0.0000000 85.5
2020-08-01 22:05:00 84.2 32.9 51.9 84.2 84.2 4.4 5.5 4.4 87.5 88.1 0.00 0.0000000 85.4
2020-08-01 22:10:00 83.4 37.5 54.8 83.4 83.4 4.2 5.3 4.5 101.1 89.2 0.00 0.0000000 85.4
2020-08-01 22:15:00 81.8 43.6 57.5 81.8 81.7 4.4 5.1 4.4 104.6 93.1 0.00 0.0000000 85.3
2020-08-01 22:20:00 80.6 45.1 57.4 80.6 80.9 4.4 5.1 4.4 102.4 99.7 0.00 0.0000000 85.2
2020-08-01 22:25:00 79.8 46.6 57.5 79.8 79.8 3.3 4.0 3.3 104.8 99.5 0.00 0.0000000 85.2
2020-08-01 22:30:00 78.7 38.8 51.6 78.7 78.7 9.2 9.2 4.5 220.6 198.3 0.00 0.0000000 85.1
2020-08-01 22:35:00 82.3 36.9 53.4 82.3 82.3 4.4 8.5 5.7 228.3 199.7 0.00 0.0000000 85.0
2020-08-01 22:40:00 82.7 37.7 54.3 82.7 82.7 6.5 6.5 4.0 236.3 228.2 0.00 0.0000000 85.0
2020-08-01 22:45:00 82.9 37.0 54.0 82.9 82.9 7.6 7.6 5.4 183.2 222.5 0.00 0.0000000 84.9
2020-08-01 22:50:00 81.9 39.1 54.6 81.9 81.9 5.6 7.4 5.7 223.0 219.8 0.00 0.0000000 84.9
2020-08-01 22:55:00 81.5 40.6 55.2 81.5 81.1 5.1 8.1 6.0 243.6 238.3 0.00 0.0000000 84.8
2020-08-01 23:00:00 81.7 37.4 53.2 81.7 81.7 8.8 9.9 6.9 267.8 268.3 0.00 0.0000000 84.8
2020-08-01 23:05:00 83.1 34.1 51.9 83.1 83.1 4.9 12.4 8.9 293.0 295.5 0.00 0.0000000 84.7
2020-08-01 23:10:00 84.1 34.2 52.9 84.1 84.1 6.2 6.3 3.9 277.1 277.7 0.00 0.0000000 84.7
2020-08-01 23:15:00 82.7 34.8 52.1 82.7 82.7 6.7 12.1 8.0 323.8 307.7 0.00 0.0000000 84.6
2020-08-01 23:20:00 81.4 36.5 52.3 81.4 81.4 8.0 8.0 6.1 303.2 310.9 0.00 0.0000000 84.6
2020-08-01 23:25:00 81.3 36.8 52.4 81.3 81.3 8.1 9.9 8.4 304.2 309.9 0.00 0.0000000 84.5
2020-08-01 23:30:00 80.4 38.0 52.4 80.4 80.4 5.5 7.2 5.8 300.9 298.0 0.00 0.0000000 84.5
2020-08-01 23:35:00 80.0 40.5 53.9 80.0 80.0 4.7 7.2 5.9 298.2 292.7 0.00 0.0000000 84.4
2020-08-01 23:40:00 79.8 39.5 53.0 79.8 79.8 5.8 6.9 5.9 320.3 318.1 0.00 0.0000000 84.4
2020-08-01 23:45:00 79.3 40.9 53.5 79.3 79.3 4.9 6.3 5.5 297.9 311.4 0.00 0.0000000 84.3
2020-08-01 23:50:00 79.0 41.9 53.9 79.0 79.0 4.2 4.9 4.3 288.9 293.4 0.00 0.0000000 84.3
2020-08-01 23:55:00 78.6 42.6 54.0 78.6 78.6 3.5 4.4 4.0 312.3 300.9 0.00 0.0000000 84.2
2020-08-02 00:00:00 78.7 41.0 53.0 78.7 78.7 3.8 4.0 3.6 304.0 310.5 0.00 0.0000000 84.1

Data is courtesy of the NM Climate Center. DO NOT USE IN LEGAL PROCEEDINGS.